Portada
METAR-TAF:

METAR-TAF

Aeroports :

Lo Mont, França

latitud: 43-55N, longitud: 000-30W, altitud: 62 m

Observació

L'informe es va fer fa 6 hores i 40 minuts, a les 05:00 UTC
Vent 2 kt amb direcció variable
Temperatura 18°C
Humitat 94%
Pressió 1019 hPa
Visibilitat: 0500 m
boira

METAR: LFBM 210500Z AUTO VRB02KT 0600 0500 R27/0750N FG VV/// 18/17 Q1019 BECMG 4000 BR BKN005

Hora: 13:40 (11:40 UTC)

Pronòstic

L'informe es va fer fa 8 hores i 16 minuts, a les 03:24 UTC
Pronòstic vàlid del 21 a les 03 UTC al 22 a les 03 UTC
Vent 3 kt del Oest
Visibilitat: 0600 m
boira
Evolucionant progressivament
l' 21 a les 06 UTC al 21 a les 08 UTC
Visibilitat: 4000 m
Cel ennuvolat a una alçada de 500 ft
boirina
Evolucionant progressivament
l' 21 a les 08 UTC al 21 a les 11 UTC
Visibilitat 10 km o més
sense núvols per sota de 1500 mi sense presència de cumulonimbus.

TAF: LFBM 210324Z 2103/2203 26003KT 0600 FG VV/// BECMG 2106/2108 4000 BR BKN005 BECMG 2108/2111 CAVOK

Observacions i pronòstics meteorològics de més de 4000 aeroports (METAR i TAF).

Les estacions disponibles són els punts grocs i vermells al mapa.

Posi el ratolí al punt desitjat per veure el nom de l'estació.

Feu clic per veure les observacions i els pronòstics meteorològics.

Per canviar el mapa: feu clic els botons verds amb una creu de color negre per apropar; al botó verd amb un guió per allunyar la imatge; o en les fletxes verdes per a mapes adjacents.


METAR-TAF: